sensor_id;sensor_type;location;lat;lon;timestamp;pressure;altitude;pressure_sealevel;temperature;humidity
60433;BME280;46286;48.098;11.590;2022-08-16T00:01:15;95034.03;;;17.78;97.87
60433;BME280;46286;48.098;11.590;2022-08-16T00:03:41;95027.81;;;17.74;98.40
60433;BME280;46286;48.098;11.590;2022-08-16T00:06:07;95021.13;;;17.68;98.85
60433;BME280;46286;48.098;11.590;2022-08-16T00:08:32;95032.50;;;17.77;98.16
60433;BME280;46286;48.098;11.590;2022-08-16T00:10:58;95034.50;;;17.80;98.08
60433;BME280;46286;48.098;11.590;2022-08-16T00:13:23;95030.03;;;17.72;98.94
60433;BME280;46286;48.098;11.590;2022-08-16T00:15:49;95036.25;;;17.76;98.97
60433;BME280;46286;48.098;11.590;2022-08-16T00:18:16;95032.00;;;17.63;100.00
60433;BME280;46286;48.098;11.590;2022-08-16T00:20:44;95026.25;;;17.73;99.27
60433;BME280;46286;48.098;11.590;2022-08-16T00:23:11;95030.69;;;17.69;99.61
60433;BME280;46286;48.098;11.590;2022-08-16T00:25:37;95031.06;;;17.59;100.00
60433;BME280;46286;48.098;11.590;2022-08-16T00:28:04;95030.25;;;17.67;100.00
60433;BME280;46286;48.098;11.590;2022-08-16T00:30:31;95030.69;;;17.69;100.00
60433;BME280;46286;48.098;11.590;2022-08-16T00:32:58;95029.75;;;17.65;100.00
60433;BME280;46286;48.098;11.590;2022-08-16T00:35:29;95027.09;;;17.65;100.00
60433;BME280;46286;48.098;11.590;2022-08-16T00:37:55;95023.53;;;17.61;100.00
60433;BME280;46286;48.098;11.590;2022-08-16T00:40:24;95022.13;;;17.63;100.00
60433;BME280;46286;48.098;11.590;2022-08-16T00:42:50;95027.31;;;17.60;100.00
60433;BME280;46286;48.098;11.590;2022-08-16T00:45:39;95023.94;;;17.51;100.00
60433;BME280;46286;48.098;11.590;2022-08-16T00:48:08;95028.41;;;17.59;100.00
60433;BME280;46286;48.098;11.590;2022-08-16T00:50:38;95027.19;;;17.56;100.00
60433;BME280;46286;48.098;11.590;2022-08-16T00:53:06;95021.09;;;17.56;100.00
60433;BME280;46286;48.098;11.590;2022-08-16T00:55:34;95019.53;;;17.55;100.00
60433;BME280;46286;48.098;11.590;2022-08-16T00:58:01;95019.94;;;17.44;100.00
60433;BME280;46286;48.098;11.590;2022-08-16T01:00:29;95025.69;;;17.46;100.00
60433;BME280;46286;48.098;11.590;2022-08-16T01:02:58;95020.84;;;17.48;100.00
60433;BME280;46286;48.098;11.590;2022-08-16T01:05:26;95016.53;;;17.56;100.00
60433;BME280;46286;48.098;11.590;2022-08-16T01:07:53;95021.72;;;17.53;100.00
60433;BME280;46286;48.098;11.590;2022-08-16T01:10:21;95020.84;;;17.48;100.00
60433;BME280;46286;48.098;11.590;2022-08-16T01:12:48;95026.78;;;17.45;100.00
60433;BME280;46286;48.098;11.590;2022-08-16T01:15:13;95016.13;;;17.45;100.00
60433;BME280;46286;48.098;11.590;2022-08-16T01:17:42;95013.69;;;17.40;100.00
60433;BME280;46286;48.098;11.590;2022-08-16T01:20:10;95016.03;;;17.42;100.00
60433;BME280;46286;48.098;11.590;2022-08-16T01:23:04;95017.84;;;17.29;100.00
60433;BME280;46286;48.098;11.590;2022-08-16T01:25:34;95017.19;;;17.32;100.00
60433;BME280;46286;48.098;11.590;2022-08-16T01:28:05;95008.13;;;17.33;100.00
60433;BME280;46286;48.098;11.590;2022-08-16T01:30:36;95017.25;;;17.44;100.00
60433;BME280;46286;48.098;11.590;2022-08-16T01:33:04;95016.78;;;17.42;100.00
60433;BME280;46286;48.098;11.590;2022-08-16T01:35:56;95024.13;;;17.45;100.00
60433;BME280;46286;48.098;11.590;2022-08-16T01:38:31;95018.53;;;17.38;100.00
60433;BME280;46286;48.098;11.590;2022-08-16T01:41:34;95020.66;;;17.33;100.00
60433;BME280;46286;48.098;11.590;2022-08-16T01:43:54;95014.78;;;17.39;100.00
60433;BME280;46286;48.098;11.590;2022-08-16T01:46:24;95016.78;;;17.42;100.00
60433;BME280;46286;48.098;11.590;2022-08-16T01:48:58;95010.31;;;17.31;100.00
60433;BME280;46286;48.098;11.590;2022-08-16T01:51:25;95013.44;;;17.33;100.00
60433;BME280;46286;48.098;11.590;2022-08-16T01:53:51;95010.13;;;17.36;100.00
60433;BME280;46286;48.098;11.590;2022-08-16T01:56:18;95009.22;;;17.32;100.00
60433;BME280;46286;48.098;11.590;2022-08-16T01:58:44;95007.47;;;17.36;100.00
60433;BME280;46286;48.098;11.590;2022-08-16T02:01:10;95003.72;;;17.37;100.00
60433;BME280;46286;48.098;11.590;2022-08-16T02:03:35;95006.56;;;17.32;100.00
60433;BME280;46286;48.098;11.590;2022-08-16T02:06:01;95002.66;;;17.29;100.00
60433;BME280;46286;48.098;11.590;2022-08-16T02:08:26;94996.31;;;17.22;100.00
60433;BME280;46286;48.098;11.590;2022-08-16T02:10:52;94996.31;;;17.22;100.00
60433;BME280;46286;48.098;11.590;2022-08-16T02:13:20;94991.91;;;17.26;100.00
60433;BME280;46286;48.098;11.590;2022-08-16T02:15:45;94988.78;;;17.24;100.00
60433;BME280;46286;48.098;11.590;2022-08-16T02:18:12;94989.69;;;17.28;100.00
60433;BME280;46286;48.098;11.590;2022-08-16T02:20:40;94987.22;;;17.23;100.00
60433;BME280;46286;48.098;11.590;2022-08-16T02:23:07;94992.72;;;17.18;100.00
60433;BME280;46286;48.098;11.590;2022-08-16T02:25:34;94992.28;;;17.16;100.00
60433;BME280;46286;48.098;11.590;2022-08-16T02:28:00;94991.81;;;17.13;100.00
60433;BME280;46286;48.098;11.590;2022-08-16T02:30:27;94992.94;;;17.12;100.00
60433;BME280;46286;48.098;11.590;2022-08-16T02:32:53;94998.88;;;17.09;100.00
60433;BME280;46286;48.098;11.590;2022-08-16T02:35:20;94993.78;;;17.04;100.00
60433;BME280;46286;48.098;11.590;2022-08-16T02:37:46;94992.53;;;17.02;100.00
60433;BME280;46286;48.098;11.590;2022-08-16T02:40:13;94985.53;;;16.97;100.00
60433;BME280;46286;48.098;11.590;2022-08-16T02:42:46;94982.41;;;16.95;100.00
60433;BME280;46286;48.098;11.590;2022-08-16T02:45:12;94979.31;;;16.93;100.00
60433;BME280;46286;48.098;11.590;2022-08-16T02:47:38;94985.75;;;16.83;100.00
60433;BME280;46286;48.098;11.590;2022-08-16T02:50:05;94990.00;;;16.75;100.00
60433;BME280;46286;48.098;11.590;2022-08-16T02:52:31;94983.63;;;16.68;100.00
60433;BME280;46286;48.098;11.590;2022-08-16T02:54:57;94988.53;;;16.57;100.00
60433;BME280;46286;48.098;11.590;2022-08-16T02:57:23;94989.53;;;16.43;100.00
60433;BME280;46286;48.098;11.590;2022-08-16T02:59:48;94988.94;;;16.29;100.00
60433;BME280;46286;48.098;11.590;2022-08-16T03:02:15;94993.34;;;16.25;100.00
60433;BME280;46286;48.098;11.590;2022-08-16T03:04:41;95001.50;;;16.20;100.00
60433;BME280;46286;48.098;11.590;2022-08-16T03:07:07;95002.75;;;16.14;100.00
60433;BME280;46286;48.098;11.590;2022-08-16T03:09:33;95006.84;;;16.02;100.00
60433;BME280;46286;48.098;11.590;2022-08-16T03:11:59;95001.38;;;15.99;100.00
60433;BME280;46286;48.098;11.590;2022-08-16T03:14:25;95004.50;;;16.01;100.00
60433;BME280;46286;48.098;11.590;2022-08-16T03:16:51;95000.59;;;15.98;100.00
60433;BME280;46286;48.098;11.590;2022-08-16T03:19:16;95003.91;;;15.95;100.00
60433;BME280;46286;48.098;11.590;2022-08-16T03:21:42;94997.66;;;15.91;100.00
60433;BME280;46286;48.098;11.590;2022-08-16T03:24:08;95007.22;;;15.83;100.00
60433;BME280;46286;48.098;11.590;2022-08-16T03:26:34;95005.94;;;15.63;100.00
60433;BME280;46286;48.098;11.590;2022-08-16T03:28:59;95009.06;;;15.65;100.00
60433;BME280;46286;48.098;11.590;2022-08-16T03:31:25;95009.38;;;15.72;100.00
60433;BME280;46286;48.098;11.590;2022-08-16T03:33:50;95010.94;;;15.73;100.00
60433;BME280;46286;48.098;11.590;2022-08-16T03:36:16;95017.94;;;15.69;100.00
60433;BME280;46286;48.098;11.590;2022-08-16T03:38:42;95017.47;;;15.67;100.00
60433;BME280;46286;48.098;11.590;2022-08-16T03:41:08;95018.72;;;15.61;100.00
60433;BME280;46286;48.098;11.590;2022-08-16T03:43:34;95019.03;;;15.68;100.00
60433;BME280;46286;48.098;11.590;2022-08-16T03:46:01;95025.28;;;15.46;100.00
60433;BME280;46286;48.098;11.590;2022-08-16T03:48:29;95023.72;;;15.36;100.00
60433;BME280;46286;48.098;11.590;2022-08-16T03:50:58;95029.34;;;15.26;100.00
60433;BME280;46286;48.098;11.590;2022-08-16T03:53:24;95024.28;;;14.98;100.00
60433;BME280;46286;48.098;11.590;2022-08-16T03:55:50;95016.47;;;14.76;100.00
60433;BME280;46286;48.098;11.590;2022-08-16T03:58:16;95023.84;;;14.96;100.00
60433;BME280;46286;48.098;11.590;2022-08-16T04:00:42;95022.75;;;14.97;100.00
60433;BME280;46286;48.098;11.590;2022-08-16T04:03:08;95015.59;;;15.06;100.00
60433;BME280;46286;48.098;11.590;2022-08-16T04:05:36;95017.47;;;15.15;100.00
60433;BME280;46286;48.098;11.590;2022-08-16T04:08:03;95019.03;;;15.16;100.00
60433;BME280;46286;48.098;11.590;2022-08-16T04:10:30;95017.91;;;15.08;100.00
60433;BME280;46286;48.098;11.590;2022-08-16T04:12:56;95029.47;;;15.03;100.00
60433;BME280;46286;48.098;11.590;2022-08-16T04:15:21;95025.53;;;14.92;100.00
60433;BME280;46286;48.098;11.590;2022-08-16T04:17:47;95011.81;;;14.90;100.00
60433;BME280;46286;48.098;11.590;2022-08-16T04:20:13;95008.41;;;14.98;100.00
60433;BME280;46286;48.098;11.590;2022-08-16T04:22:39;95018.06;;;14.94;100.00
60433;BME280;46286;48.098;11.590;2022-08-16T04:25:09;95007.00;;;14.92;100.00
60433;BME280;46286;48.098;11.590;2022-08-16T04:27:35;95021.78;;;14.84;100.00
60433;BME280;46286;48.098;11.590;2022-08-16T04:30:04;95021.78;;;14.84;100.00
60433;BME280;46286;48.098;11.590;2022-08-16T04:32:30;95023.78;;;14.79;100.00
60433;BME280;46286;48.098;11.590;2022-08-16T04:34:56;95020.66;;;14.77;100.00
60433;BME280;46286;48.098;11.590;2022-08-16T04:37:21;95021.91;;;14.70;100.00
60433;BME280;46286;48.098;11.590;2022-08-16T04:39:47;95020.19;;;14.75;100.00
60433;BME280;46286;48.098;11.590;2022-08-16T04:42:16;95025.81;;;14.82;100.00
60433;BME280;46286;48.098;11.590;2022-08-16T04:44:42;95032.53;;;14.88;100.00
60433;BME280;46286;48.098;11.590;2022-08-16T04:47:08;95034.84;;;14.81;100.00
60433;BME280;46286;48.098;11.590;2022-08-16T04:49:34;95036.25;;;14.78;100.00
60433;BME280;46286;48.098;11.590;2022-08-16T04:51:59;95037.03;;;14.79;100.00
60433;BME280;46286;48.098;11.590;2022-08-16T04:54:25;95042.19;;;14.84;100.00
60433;BME280;46286;48.098;11.590;2022-08-16T04:56:50;95040.16;;;14.81;100.00
60433;BME280;46286;48.098;11.590;2022-08-16T04:59:16;95034.72;;;14.86;100.00
60433;BME280;46286;48.098;11.590;2022-08-16T05:01:41;95037.22;;;14.91;100.00
60433;BME280;46286;48.098;11.590;2022-08-16T05:04:07;95029.88;;;14.88;100.00
60433;BME280;46286;48.098;11.590;2022-08-16T05:06:32;95044.56;;;14.94;100.00
60433;BME280;46286;48.098;11.590;2022-08-16T05:08:58;95044.56;;;14.94;100.00
60433;BME280;46286;48.098;11.590;2022-08-16T05:11:24;95037.53;;;14.98;100.00
60433;BME280;46286;48.098;11.590;2022-08-16T05:13:51;95042.06;;;14.89;100.00
60433;BME280;46286;48.098;11.590;2022-08-16T05:16:21;95043.78;;;15.02;100.00
60433;BME280;46286;48.098;11.590;2022-08-16T05:18:50;95041.13;;;15.02;100.00
60433;BME280;46286;48.098;11.590;2022-08-16T05:21:15;95037.53;;;14.98;100.00
60433;BME280;46286;48.098;11.590;2022-08-16T05:23:41;95041.94;;;15.03;100.00
60433;BME280;46286;48.098;11.590;2022-08-16T05:26:07;95028.06;;;14.97;100.00
60433;BME280;46286;48.098;11.590;2022-08-16T05:28:32;95048.63;;;15.00;100.00
60433;BME280;46286;48.098;11.590;2022-08-16T05:30:58;95052.97;;;14.96;100.00
60433;BME280;46286;48.098;11.590;2022-08-16T05:33:23;95047.06;;;14.99;100.00
60433;BME280;46286;48.098;11.590;2022-08-16T05:35:50;95047.69;;;14.96;100.00
60433;BME280;46286;48.098;11.590;2022-08-16T05:38:16;95047.38;;;15.06;100.00
60433;BME280;46286;48.098;11.590;2022-08-16T05:40:42;95056.75;;;15.13;100.00
60433;BME280;46286;48.098;11.590;2022-08-16T05:43:08;95046.75;;;15.10;100.00
60433;BME280;46286;48.098;11.590;2022-08-16T05:45:33;95060.66;;;15.15;100.00
60433;BME280;46286;48.098;11.590;2022-08-16T05:47:59;95057.84;;;15.12;100.00
60433;BME280;46286;48.098;11.590;2022-08-16T05:50:24;95053.94;;;15.18;100.00
60433;BME280;46286;48.098;11.590;2022-08-16T05:52:50;95049.91;;;15.12;100.00
60433;BME280;46286;48.098;11.590;2022-08-16T05:55:16;95057.06;;;15.20;100.00
60433;BME280;46286;48.098;11.590;2022-08-16T05:57:43;95053.03;;;15.31;100.00
60433;BME280;46286;48.098;11.590;2022-08-16T06:00:10;95052.25;;;15.39;100.00
60433;BME280;46286;48.098;11.590;2022-08-16T06:02:39;95055.53;;;15.54;100.00
60433;BME280;46286;48.098;11.590;2022-08-16T06:05:05;95057.56;;;15.66;100.00
60433;BME280;46286;48.098;11.590;2022-08-16T06:07:31;95051.81;;;15.72;100.00
60433;BME280;46286;48.098;11.590;2022-08-16T06:09:57;95062.44;;;15.90;100.00
60433;BME280;46286;48.098;11.590;2022-08-16T06:12:24;95057.28;;;16.02;100.00
60433;BME280;46286;48.098;11.590;2022-08-16T06:14:50;95061.94;;;16.14;100.00
60433;BME280;46286;48.098;11.590;2022-08-16T06:17:16;95057.69;;;16.22;100.00
60433;BME280;46286;48.098;11.590;2022-08-16T06:19:42;95062.53;;;16.28;100.00
60433;BME280;46286;48.098;11.590;2022-08-16T06:22:08;95062.34;;;16.42;100.00
60433;BME280;46286;48.098;11.590;2022-08-16T06:24:34;95058.25;;;16.54;100.00
60433;BME280;46286;48.098;11.590;2022-08-16T06:27:00;95056.75;;;16.74;100.00
60433;BME280;46286;48.098;11.590;2022-08-16T06:29:26;95048.09;;;16.86;100.00
60433;BME280;46286;48.098;11.590;2022-08-16T06:31:52;95046.19;;;16.95;100.00
60433;BME280;46286;48.098;11.590;2022-08-16T06:34:17;95052.97;;;17.13;100.00
60433;BME280;46286;48.098;11.590;2022-08-16T06:36:43;95058.75;;;17.16;100.00
60433;BME280;46286;48.098;11.590;2022-08-16T06:39:08;95063.59;;;17.13;100.00
60433;BME280;46286;48.098;11.590;2022-08-16T06:41:34;95062.28;;;17.28;100.00
60433;BME280;46286;48.098;11.590;2022-08-16T06:43:59;95057.81;;;17.41;100.00
60433;BME280;46286;48.098;11.590;2022-08-16T06:46:32;95056.94;;;17.49;100.00
60433;BME280;46286;48.098;11.590;2022-08-16T06:49:07;95055.59;;;17.64;100.00
60433;BME280;46286;48.098;11.590;2022-08-16T06:51:34;95071.03;;;17.71;100.00
60433;BME280;46286;48.098;11.590;2022-08-16T06:54:01;95068.25;;;17.89;100.00
60433;BME280;46286;48.098;11.590;2022-08-16T06:56:27;95066.88;;;18.04;99.91
60433;BME280;46286;48.098;11.590;2022-08-16T06:58:53;95051.53;;;18.22;93.23
60433;BME280;46286;48.098;11.590;2022-08-16T07:01:22;95058.81;;;18.12;96.64
60433;BME280;46286;48.098;11.590;2022-08-16T07:03:48;95066.34;;;18.10;99.80
60433;BME280;46286;48.098;11.590;2022-08-16T07:06:14;95067.75;;;18.29;94.47
60433;BME280;46286;48.098;11.590;2022-08-16T07:08:40;95056.91;;;18.46;93.76
60433;BME280;46286;48.098;11.590;2022-08-16T07:11:07;95062.22;;;18.59;90.16
60433;BME280;46286;48.098;11.590;2022-08-16T07:13:34;95061.91;;;18.60;86.91
60433;BME280;46286;48.098;11.590;2022-08-16T07:16:00;95067.03;;;18.78;84.60
60433;BME280;46286;48.098;11.590;2022-08-16T07:18:27;95060.97;;;18.90;81.19
60433;BME280;46286;48.098;11.590;2022-08-16T07:20:53;95054.53;;;18.91;80.16
60433;BME280;46286;48.098;11.590;2022-08-16T07:23:20;95060.50;;;18.87;83.40
60433;BME280;46286;48.098;11.590;2022-08-16T07:25:46;95061.13;;;18.84;83.28
60433;BME280;46286;48.098;11.590;2022-08-16T07:28:13;95047.81;;;18.72;85.05
60433;BME280;46286;48.098;11.590;2022-08-16T07:30:40;95057.19;;;19.03;85.36
60433;BME280;46286;48.098;11.590;2022-08-16T07:33:07;95051.81;;;19.28;82.49
60433;BME280;46286;48.098;11.590;2022-08-16T07:35:34;95053.38;;;19.29;81.19
60433;BME280;46286;48.098;11.590;2022-08-16T07:38:00;95040.03;;;19.16;78.54
60433;BME280;46286;48.098;11.590;2022-08-16T07:40:26;95048.47;;;19.31;77.81
60433;BME280;46286;48.098;11.590;2022-08-16T07:42:52;95045.84;;;19.59;78.23
60433;BME280;46286;48.098;11.590;2022-08-16T07:45:18;95049.34;;;19.47;79.18
60433;BME280;46286;48.098;11.590;2022-08-16T07:47:44;95051.78;;;19.52;80.64
60433;BME280;46286;48.098;11.590;2022-08-16T07:50:11;95040.81;;;19.70;73.96
60433;BME280;46286;48.098;11.590;2022-08-16T07:52:38;95053.38;;;20.10;72.27
60433;BME280;46286;48.098;11.590;2022-08-16T07:55:04;95045.41;;;19.98;72.91
60433;BME280;46286;48.098;11.590;2022-08-16T07:57:29;95049.84;;;20.22;72.80
60433;BME280;46286;48.098;11.590;2022-08-16T07:59:55;95052.22;;;20.11;73.45
60433;BME280;46286;48.098;11.590;2022-08-16T08:02:20;95051.63;;;20.02;74.70
60433;BME280;46286;48.098;11.590;2022-08-16T08:04:47;95055.31;;;19.97;73.26
60433;BME280;46286;48.098;11.590;2022-08-16T08:07:12;95056.09;;;19.98;72.89
60433;BME280;46286;48.098;11.590;2022-08-16T08:09:38;95048.84;;;19.98;73.24
60433;BME280;46286;48.098;11.590;2022-08-16T08:12:03;95055.41;;;20.61;70.51
60433;BME280;46286;48.098;11.590;2022-08-16T08:14:29;95062.38;;;20.66;69.14
60433;BME280;46286;48.098;11.590;2022-08-16T08:16:57;95056.09;;;20.58;69.06
60433;BME280;46286;48.098;11.590;2022-08-16T08:19:24;95053.00;;;20.56;68.97
60433;BME280;46286;48.098;11.590;2022-08-16T08:21:49;95049.63;;;20.43;68.72
60433;BME280;46286;48.098;11.590;2022-08-16T08:24:20;95064.47;;;20.56;68.60
60433;BME280;46286;48.098;11.590;2022-08-16T08:26:46;95059.81;;;20.53;67.93
60433;BME280;46286;48.098;11.590;2022-08-16T08:29:12;95054.16;;;20.71;67.86
60433;BME280;46286;48.098;11.590;2022-08-16T08:31:37;95058.25;;;21.16;66.49
60433;BME280;46286;48.098;11.590;2022-08-16T08:34:06;95057.63;;;21.23;64.64
60433;BME280;46286;48.098;11.590;2022-08-16T08:36:33;95061.50;;;21.25;63.96
60433;BME280;46286;48.098;11.590;2022-08-16T08:39:02;95070.66;;;21.24;65.68
60433;BME280;46286;48.098;11.590;2022-08-16T08:41:28;95066.78;;;21.06;66.73
60433;BME280;46286;48.098;11.590;2022-08-16T08:43:56;95062.44;;;20.98;65.75
60433;BME280;46286;48.098;11.590;2022-08-16T08:46:23;95059.31;;;20.96;64.61
60433;BME280;46286;48.098;11.590;2022-08-16T08:48:51;95056.81;;;20.87;68.71
60433;BME280;46286;48.098;11.590;2022-08-16T08:51:17;95056.28;;;20.81;67.38
60433;BME280;46286;48.098;11.590;2022-08-16T08:53:44;95048.69;;;21.15;65.78
60433;BME280;46286;48.098;11.590;2022-08-16T08:56:11;95044.34;;;21.46;65.48
60433;BME280;46286;48.098;11.590;2022-08-16T08:58:37;95052.16;;;21.51;66.05
60433;BME280;46286;48.098;11.590;2022-08-16T09:01:05;95046.38;;;21.69;64.79
60433;BME280;46286;48.098;11.590;2022-08-16T09:03:34;95051.88;;;21.76;64.67
60433;BME280;46286;48.098;11.590;2022-08-16T09:06:02;95046.47;;;22.15;62.99
60433;BME280;46286;48.098;11.590;2022-08-16T09:08:28;95045.09;;;22.21;62.33
60433;BME280;46286;48.098;11.590;2022-08-16T09:10:56;95058.63;;;22.09;63.62
60433;BME280;46286;48.098;11.590;2022-08-16T09:13:22;95049.41;;;22.29;60.57
60433;BME280;46286;48.098;11.590;2022-08-16T09:15:53;95049.13;;;22.54;60.56
60433;BME280;46286;48.098;11.590;2022-08-16T09:18:21;95046.31;;;22.47;60.71
60433;BME280;46286;48.098;11.590;2022-08-16T09:20:47;95049.00;;;22.27;60.85
60433;BME280;46286;48.098;11.590;2022-08-16T09:23:13;95046.75;;;22.29;61.09
60433;BME280;46286;48.098;11.590;2022-08-16T09:25:39;95044.38;;;22.24;61.67
60433;BME280;46286;48.098;11.590;2022-08-16T09:28:05;95039.72;;;22.21;61.38
60433;BME280;46286;48.098;11.590;2022-08-16T09:30:31;95042.72;;;22.62;57.30
60433;BME280;46286;48.098;11.590;2022-08-16T09:33:01;95045.50;;;22.66;56.74
60433;BME280;46286;48.098;11.590;2022-08-16T09:35:26;95050.38;;;22.60;56.77
60433;BME280;46286;48.098;11.590;2022-08-16T09:37:53;95040.16;;;22.70;56.06
60433;BME280;46286;48.098;11.590;2022-08-16T09:40:18;95044.41;;;22.71;56.40
60433;BME280;46286;48.098;11.590;2022-08-16T09:42:44;95037.72;;;22.84;57.06
60433;BME280;46286;48.098;11.590;2022-08-16T09:45:10;95046.41;;;23.00;56.44
60433;BME280;46286;48.098;11.590;2022-08-16T09:47:36;95047.66;;;23.33;53.51
60433;BME280;46286;48.098;11.590;2022-08-16T09:50:06;95044.56;;;23.31;54.40
60433;BME280;46286;48.098;11.590;2022-08-16T09:52:32;95047.56;;;23.26;54.47
60433;BME280;46286;48.098;11.590;2022-08-16T09:55:00;95039.09;;;23.24;53.65
60433;BME280;46286;48.098;11.590;2022-08-16T09:57:27;95033.91;;;23.39;53.64
60433;BME280;46286;48.098;11.590;2022-08-16T09:59:53;95026.28;;;23.41;54.20
60433;BME280;46286;48.098;11.590;2022-08-16T10:02:18;95024.09;;;23.50;52.75
60433;BME280;46286;48.098;11.590;2022-08-16T10:04:44;95021.28;;;23.69;52.18
60433;BME280;46286;48.098;11.590;2022-08-16T10:07:10;95020.81;;;23.94;52.05
60433;BME280;46286;48.098;11.590;2022-08-16T10:09:35;95023.31;;;24.14;52.48
60433;BME280;46286;48.098;11.590;2022-08-16T10:12:00;95034.34;;;24.43;52.00
60433;BME280;46286;48.098;11.590;2022-08-16T10:14:45;95024.72;;;24.83;50.33
60433;BME280;46286;48.098;11.590;2022-08-16T10:17:10;95018.72;;;25.07;45.53
60433;BME280;46286;48.098;11.590;2022-08-16T10:19:36;95020.97;;;24.98;46.76
60433;BME280;46286;48.098;11.590;2022-08-16T10:22:02;95019.59;;;25.26;45.76
60433;BME280;46286;48.098;11.590;2022-08-16T10:24:27;95017.25;;;25.21;45.55
60433;BME280;46286;48.098;11.590;2022-08-16T10:26:53;95020.81;;;25.32;47.58
60433;BME280;46286;48.098;11.590;2022-08-16T10:29:19;95017.66;;;25.23;46.37
60433;BME280;46286;48.098;11.590;2022-08-16T10:31:44;95020.41;;;25.30;47.50
60433;BME280;46286;48.098;11.590;2022-08-16T10:34:10;95028.06;;;25.28;47.43
60433;BME280;46286;48.098;11.590;2022-08-16T10:36:35;95021.00;;;25.05;46.64
60433;BME280;46286;48.098;11.590;2022-08-16T10:39:02;95022.50;;;24.99;46.83
60433;BME280;46286;48.098;11.590;2022-08-16T10:41:28;95022.66;;;25.21;45.41
60433;BME280;46286;48.098;11.590;2022-08-16T10:43:53;95019.16;;;25.90;42.76
60433;BME280;46286;48.098;11.590;2022-08-16T10:46:19;95007.72;;;26.44;41.69
60433;BME280;46286;48.098;11.590;2022-08-16T10:48:44;95015.44;;;26.89;40.28
60433;BME280;46286;48.098;11.590;2022-08-16T10:51:11;95008.38;;;27.67;41.13
60433;BME280;46286;48.098;11.590;2022-08-16T10:53:37;95011.72;;;27.89;39.80
60433;BME280;46286;48.098;11.590;2022-08-16T10:56:10;95012.25;;;27.55;38.21
60433;BME280;46286;48.098;11.590;2022-08-16T10:58:38;95019.19;;;27.60;38.43
60433;BME280;46286;48.098;11.590;2022-08-16T11:01:05;95015.41;;;27.25;39.89
60433;BME280;46286;48.098;11.590;2022-08-16T11:03:33;95006.91;;;26.15;41.57
60433;BME280;46286;48.098;11.590;2022-08-16T11:05:59;95012.34;;;26.36;41.78
60433;BME280;46286;48.098;11.590;2022-08-16T11:08:24;95019.97;;;26.05;41.15
60433;BME280;46286;48.098;11.590;2022-08-16T11:10:51;95020.03;;;26.16;42.28
60433;BME280;46286;48.098;11.590;2022-08-16T11:13:21;95019.25;;;26.30;41.21
60433;BME280;46286;48.098;11.590;2022-08-16T11:15:47;95023.03;;;27.62;39.02
60433;BME280;46286;48.098;11.590;2022-08-16T11:18:13;95020.78;;;28.31;36.48
60433;BME280;46286;48.098;11.590;2022-08-16T11:20:40;95018.94;;;28.17;37.30
60433;BME280;46286;48.098;11.590;2022-08-16T11:23:07;95024.22;;;27.51;36.20
60433;BME280;46286;48.098;11.590;2022-08-16T11:25:33;95017.00;;;26.90;38.40
60433;BME280;46286;48.098;11.590;2022-08-16T11:27:59;95019.06;;;27.89;38.39
60433;BME280;46286;48.098;11.590;2022-08-16T11:30:27;95010.53;;;28.01;38.13
60433;BME280;46286;48.098;11.590;2022-08-16T11:32:54;95016.63;;;29.17;35.57
60433;BME280;46286;48.098;11.590;2022-08-16T11:35:23;95014.31;;;29.19;34.73
60433;BME280;46286;48.098;11.590;2022-08-16T11:37:53;95002.50;;;30.06;35.77
60433;BME280;46286;48.098;11.590;2022-08-16T11:40:20;95001.13;;;29.21;34.51
60433;BME280;46286;48.098;11.590;2022-08-16T11:42:46;95011.75;;;29.43;33.92
60433;BME280;46286;48.098;11.590;2022-08-16T11:45:12;95011.81;;;29.74;33.84
60433;BME280;46286;48.098;11.590;2022-08-16T11:47:38;94999.09;;;30.26;32.58
60433;BME280;46286;48.098;11.590;2022-08-16T11:50:05;94995.94;;;30.31;33.29
60433;BME280;46286;48.098;11.590;2022-08-16T11:52:35;94993.88;;;30.66;31.67
60433;BME280;46286;48.098;11.590;2022-08-16T11:55:04;94993.34;;;31.42;30.61
60433;BME280;46286;48.098;11.590;2022-08-16T11:57:32;94994.63;;;31.57;29.14
60433;BME280;46286;48.098;11.590;2022-08-16T11:59:58;94992.59;;;30.98;29.53
60433;BME280;46286;48.098;11.590;2022-08-16T12:02:24;94998.41;;;31.20;28.87
60433;BME280;46286;48.098;11.590;2022-08-16T12:04:50;94985.28;;;31.58;28.17
60433;BME280;46286;48.098;11.590;2022-08-16T12:07:15;94988.97;;;32.05;28.08
60433;BME280;46286;48.098;11.590;2022-08-16T12:09:41;94979.59;;;31.89;28.80
60433;BME280;46286;48.098;11.590;2022-08-16T12:12:07;94985.03;;;30.85;31.04
60433;BME280;46286;48.098;11.590;2022-08-16T12:14:34;94978.84;;;32.42;28.05
60433;BME280;46286;48.098;11.590;2022-08-16T12:17:00;94984.50;;;32.68;27.15
60433;BME280;46286;48.098;11.590;2022-08-16T12:19:28;94976.41;;;32.80;27.18
60433;BME280;46286;48.098;11.590;2022-08-16T12:21:54;94976.59;;;33.03;25.57
60433;BME280;46286;48.098;11.590;2022-08-16T12:24:20;94975.03;;;32.72;26.82
60433;BME280;46286;48.098;11.590;2022-08-16T12:26:46;94976.97;;;32.22;27.72
60433;BME280;46286;48.098;11.590;2022-08-16T12:29:13;94978.75;;;32.78;26.76
60433;BME280;46286;48.098;11.590;2022-08-16T12:31:39;94975.13;;;32.69;26.64
60433;BME280;46286;48.098;11.590;2022-08-16T12:34:05;94983.53;;;33.20;26.14
60433;BME280;46286;48.098;11.590;2022-08-16T12:36:32;94971.16;;;33.03;25.26
60433;BME280;46286;48.098;11.590;2022-08-16T12:39:01;94975.75;;;33.06;25.92
60433;BME280;46286;48.098;11.590;2022-08-16T12:41:27;94968.41;;;34.04;24.47
60433;BME280;46286;48.098;11.590;2022-08-16T12:43:54;94971.34;;;34.09;23.78